createdAt,value
2022-12-05T00:01:34.958Z,35.80
2022-12-05T00:04:05.034Z,42.90
2022-12-05T00:06:34.105Z,39.77
2022-12-05T00:09:02.119Z,38.13
2022-12-05T00:11:31.637Z,36.27
2022-12-05T00:14:01.157Z,33.27
2022-12-05T00:16:32.507Z,39.13
2022-12-05T00:19:01.114Z,34.03
2022-12-05T00:21:30.381Z,34.80
2022-12-05T00:24:00.123Z,39.03
2022-12-05T00:26:28.719Z,37.07
2022-12-05T00:28:57.513Z,32.23
2022-12-05T00:31:26.663Z,42.90
2022-12-05T00:33:56.513Z,32.53
2022-12-05T00:36:26.065Z,34.97
2022-12-05T00:38:54.660Z,41.73
2022-12-05T00:41:25.144Z,33.43
2022-12-05T00:43:53.759Z,36.07
2022-12-05T00:46:23.581Z,37.07
2022-12-05T00:48:53.572Z,34.90
2022-12-05T00:51:27.069Z,35.50
2022-12-05T00:53:55.611Z,34.70
2022-12-05T00:56:25.013Z,35.33
2022-12-05T00:58:54.670Z,32.23
2022-12-05T01:01:24.467Z,37.03
2022-12-05T01:03:54.703Z,34.50
2022-12-05T01:06:24.545Z,34.70
2022-12-05T01:08:53.668Z,27.97
2022-12-05T01:11:21.878Z,31.63
2022-12-05T01:13:50.172Z,34.57
2022-12-05T01:16:20.231Z,35.03
2022-12-05T01:18:48.436Z,31.33
2022-12-05T01:21:16.449Z,32.50
2022-12-05T01:23:45.701Z,31.87
2022-12-05T01:26:15.636Z,36.43
2022-12-05T01:28:44.134Z,30.30
2022-12-05T01:31:19.500Z,29.20
2022-12-05T01:33:47.426Z,27.57
2022-12-05T01:36:15.547Z,32.27
2022-12-05T01:38:45.520Z,28.93
2022-12-05T01:41:16.485Z,29.77
2022-12-05T01:43:58.978Z,39.90
2022-12-05T01:46:28.153Z,32.70
2022-12-05T01:49:03.080Z,31.67
2022-12-05T01:51:31.618Z,30.23
2022-12-05T01:54:01.467Z,32.50
2022-12-05T01:56:29.444Z,31.33
2022-12-05T01:58:57.881Z,30.57
2022-12-05T02:01:25.744Z,34.60
2022-12-05T02:03:58.330Z,36.30
2022-12-05T02:06:27.777Z,30.30
2022-12-05T02:08:55.922Z,34.40
2022-12-05T02:11:27.949Z,28.17
2022-12-05T02:14:07.007Z,31.03
2022-12-05T02:16:57.523Z,33.83
2022-12-05T02:19:57.703Z,29.43
2022-12-05T02:22:51.799Z,31.83
2022-12-05T02:25:49.348Z,27.53
2022-12-05T02:28:51.165Z,27.70
2022-12-05T02:31:26.869Z,25.50
2022-12-05T02:34:01.544Z,37.53
2022-12-05T02:36:37.293Z,29.43
2022-12-05T02:39:13.288Z,26.43
2022-12-05T02:41:46.625Z,26.53
2022-12-05T02:44:18.722Z,27.00
2022-12-05T02:46:52.165Z,28.73
2022-12-05T02:49:24.473Z,30.40
2022-12-05T02:51:57.832Z,26.13
2022-12-05T02:54:29.493Z,27.57
2022-12-05T02:56:59.879Z,30.23
2022-12-05T02:59:27.743Z,28.30
2022-12-05T03:01:57.216Z,28.37
2022-12-05T03:04:26.469Z,28.27
2022-12-05T03:06:59.849Z,26.60
2022-12-05T03:09:33.045Z,26.27
2022-12-05T03:12:06.808Z,27.37
2022-12-05T03:14:40.072Z,28.70
2022-12-05T03:17:14.592Z,30.53
2022-12-05T03:19:50.518Z,30.00
2022-12-05T03:22:25.568Z,30.20
2022-12-05T03:24:53.638Z,27.33
2022-12-05T03:27:26.659Z,26.10
2022-12-05T03:29:57.907Z,27.90
2022-12-05T03:32:33.981Z,25.50
2022-12-05T03:35:07.635Z,26.67
2022-12-05T03:37:42.834Z,28.67
2022-12-05T03:40:20.711Z,27.33
2022-12-05T03:42:53.556Z,25.70
2022-12-05T03:45:28.211Z,26.77
2022-12-05T03:48:08.604Z,28.15
2022-12-05T03:50:41.019Z,23.10
2022-12-05T03:53:19.784Z,29.37
2022-12-05T03:55:54.444Z,26.50
2022-12-05T03:58:28.431Z,25.73
2022-12-05T04:01:00.196Z,28.13
2022-12-05T04:03:39.341Z,23.97
2022-12-05T04:06:14.517Z,25.50
2022-12-05T04:08:46.836Z,24.80
2022-12-05T04:11:20.712Z,24.83
2022-12-05T04:13:53.000Z,23.97
2022-12-05T04:16:42.378Z,23.77
2022-12-05T04:19:18.118Z,22.30
2022-12-05T04:21:48.233Z,23.97
2022-12-05T04:24:37.971Z,27.73
2022-12-05T04:27:13.166Z,25.10
2022-12-05T04:29:47.069Z,26.10
2022-12-05T04:32:15.448Z,26.93
2022-12-05T04:34:51.526Z,22.47
2022-12-05T04:37:23.733Z,25.53
2022-12-05T04:39:57.940Z,24.10
2022-12-05T04:42:29.842Z,24.00
2022-12-05T04:45:02.985Z,23.43
2022-12-05T04:47:36.540Z,25.07
2022-12-05T04:50:09.010Z,22.87
2022-12-05T04:52:37.751Z,23.17
2022-12-05T04:55:11.328Z,23.07
2022-12-05T04:57:45.521Z,22.90
2022-12-05T05:00:14.146Z,20.73
2022-12-05T05:02:47.753Z,21.80
2022-12-05T05:05:19.122Z,21.43
2022-12-05T05:07:48.900Z,23.73
2022-12-05T05:10:22.630Z,24.40
2022-12-05T05:12:50.553Z,22.10
2022-12-05T05:15:18.390Z,21.93
2022-12-05T05:17:46.206Z,22.63
2022-12-05T05:20:27.055Z,21.83
2022-12-05T05:22:57.827Z,22.63
2022-12-05T05:25:26.208Z,22.10
2022-12-05T05:27:56.054Z,23.70
2022-12-05T05:30:25.654Z,23.40
2022-12-05T05:32:53.485Z,21.33
2022-12-05T05:35:21.515Z,18.63
2022-12-05T05:37:49.300Z,22.47
2022-12-05T05:40:19.209Z,19.43
2022-12-05T05:42:48.460Z,19.93
2022-12-05T05:45:17.316Z,19.37
2022-12-05T05:47:45.684Z,20.10
2022-12-05T05:50:19.473Z,18.80
2022-12-05T05:52:49.144Z,19.07
2022-12-05T05:55:18.544Z,16.57
2022-12-05T05:57:46.341Z,22.07
2022-12-05T06:00:15.615Z,18.57
2022-12-05T06:02:43.747Z,18.03
2022-12-05T06:05:11.745Z,20.63
2022-12-05T06:07:39.639Z,18.73
2022-12-05T06:10:08.776Z,21.33
2022-12-05T06:12:37.985Z,18.87
2022-12-05T06:15:06.934Z,17.87
2022-12-05T06:17:34.789Z,18.70
2022-12-05T06:20:02.740Z,21.80
2022-12-05T06:22:31.172Z,18.13
2022-12-05T06:24:59.686Z,22.30
2022-12-05T06:27:29.926Z,20.57
2022-12-05T06:29:59.773Z,17.83
2022-12-05T06:32:29.822Z,16.07
2022-12-05T06:34:57.774Z,18.87
2022-12-05T06:37:25.566Z,18.57
2022-12-05T06:39:53.508Z,21.87
2022-12-05T06:42:22.158Z,21.10
2022-12-05T06:44:49.982Z,16.50
2022-12-05T06:47:19.081Z,19.30
2022-12-05T06:49:46.875Z,16.27
2022-12-05T06:52:14.666Z,18.00
2022-12-05T06:54:42.455Z,20.20
2022-12-05T06:57:10.621Z,16.73
2022-12-05T06:59:38.382Z,14.83
2022-12-05T07:02:08.036Z,15.37
2022-12-05T07:04:37.236Z,13.90
2022-12-05T07:07:05.074Z,14.63
2022-12-05T07:09:48.116Z,13.37
2022-12-05T07:12:17.601Z,13.10
2022-12-05T07:14:48.688Z,15.33
2022-12-05T07:17:17.420Z,12.00
2022-12-05T07:19:48.634Z,12.97
2022-12-05T07:22:16.591Z,10.83
2022-12-05T07:24:44.756Z,13.93
2022-12-05T07:27:12.771Z,13.13
2022-12-05T07:29:40.609Z,15.93
2022-12-05T07:32:09.457Z,11.80
2022-12-05T07:34:38.711Z,12.00
2022-12-05T07:37:08.089Z,11.80
2022-12-05T07:39:36.001Z,10.70
2022-12-05T07:42:03.943Z,11.47
2022-12-05T07:44:32.218Z,12.73
2022-12-05T07:47:00.386Z,12.90
2022-12-05T07:49:28.401Z,11.20
2022-12-05T07:51:56.176Z,11.13
2022-12-05T07:54:28.090Z,13.20
2022-12-05T07:56:55.895Z,11.13
2022-12-05T07:59:23.712Z,13.10
2022-12-05T08:01:51.646Z,12.17
2022-12-05T08:04:20.657Z,12.40
2022-12-05T08:06:48.470Z,10.80
2022-12-05T08:09:16.333Z,11.37
2022-12-05T08:11:51.013Z,11.00
2022-12-05T08:14:20.777Z,10.43
2022-12-05T08:16:48.660Z,11.17
2022-12-05T08:19:17.026Z,10.00
2022-12-05T08:21:44.995Z,10.50
2022-12-05T08:24:13.495Z,11.20
2022-12-05T08:26:41.788Z,11.80
2022-12-05T08:29:12.706Z,11.57
2022-12-05T08:31:42.619Z,13.30
2022-12-05T08:34:17.488Z,10.30
2022-12-05T08:36:46.130Z,12.47
2022-12-05T08:39:16.383Z,10.47
2022-12-05T08:41:44.617Z,10.67
2022-12-05T08:44:16.318Z,10.00
2022-12-05T08:46:46.043Z,10.80
2022-12-05T08:49:14.352Z,9.73
2022-12-05T08:51:42.978Z,12.10
2022-12-05T08:54:11.294Z,11.67
2022-12-05T08:56:39.497Z,10.43
2022-12-05T08:59:07.943Z,10.10
2022-12-05T09:01:39.162Z,9.97
2022-12-05T09:04:08.108Z,9.17
2022-12-05T09:06:37.014Z,10.30
2022-12-05T09:09:08.042Z,10.30
2022-12-05T09:11:38.343Z,11.13
2022-12-05T09:14:06.558Z,11.67
2022-12-05T09:16:39.002Z,11.37
2022-12-05T09:19:11.650Z,12.30
2022-12-05T09:21:39.466Z,11.93
2022-12-05T09:24:07.388Z,13.10
2022-12-05T09:26:35.256Z,10.70
2022-12-05T09:29:03.823Z,11.70
2022-12-05T09:31:31.748Z,11.43
2022-12-05T09:34:02.117Z,13.00
2022-12-05T09:36:32.070Z,13.47
2022-12-05T09:39:02.354Z,13.30
2022-12-05T09:42:07.907Z,13.13
2022-12-05T09:44:58.010Z,11.70
2022-12-05T09:47:35.546Z,11.80
2022-12-05T09:50:18.173Z,11.30
2022-12-05T09:52:55.452Z,13.03
2022-12-05T09:55:23.543Z,15.00
2022-12-05T09:57:53.896Z,14.20
2022-12-05T10:00:22.009Z,11.93
2022-12-05T10:02:59.693Z,13.17
2022-12-05T10:05:35.808Z,12.00
2022-12-05T10:08:13.706Z,11.43
2022-12-05T10:10:49.672Z,13.10
2022-12-05T10:13:31.160Z,14.07
2022-12-05T10:16:03.506Z,12.80
2022-12-05T10:18:38.456Z,14.83
2022-12-05T10:21:15.857Z,12.90
2022-12-05T10:23:58.000Z,17.00
2022-12-05T10:26:29.790Z,19.37
2022-12-05T10:29:03.571Z,21.10
2022-12-05T10:31:35.731Z,22.63
2022-12-05T10:34:07.026Z,21.37
2022-12-05T10:36:36.321Z,20.93
2022-12-05T10:39:08.402Z,22.57
2022-12-05T10:41:39.378Z,15.97
2022-12-05T10:44:07.262Z,13.57
2022-12-05T10:46:35.227Z,11.17
2022-12-05T10:49:03.547Z,12.80
2022-12-05T10:51:37.366Z,10.23
2022-12-05T10:54:17.946Z,12.20
2022-12-05T10:56:47.930Z,10.97
2022-12-05T10:59:18.076Z,13.20
2022-12-05T11:01:49.053Z,13.00
2022-12-05T11:04:24.252Z,10.50
2022-12-05T11:06:55.475Z,10.30
2022-12-05T11:09:27.283Z,11.10
2022-12-05T11:12:06.754Z,12.10
2022-12-05T11:14:36.121Z,9.03
2022-12-05T11:17:06.205Z,9.20
2022-12-05T11:19:35.544Z,11.73
2022-12-05T11:22:05.187Z,9.43
2022-12-05T11:24:35.754Z,12.30
2022-12-05T11:27:21.953Z,10.00
2022-12-05T11:29:57.749Z,12.83
2022-12-05T11:32:27.449Z,10.80
2022-12-05T11:35:00.608Z,10.70
2022-12-05T11:37:33.258Z,11.63
2022-12-05T11:40:04.079Z,12.13
2022-12-05T11:42:44.320Z,12.97
2022-12-05T11:45:36.150Z,12.00
2022-12-05T11:48:20.339Z,12.60
2022-12-05T11:51:00.489Z,13.97
2022-12-05T11:53:56.854Z,11.47
2022-12-05T11:56:37.271Z,11.00
2022-12-05T11:59:29.315Z,11.83
2022-12-05T12:02:23.089Z,9.90
2022-12-05T12:04:58.416Z,9.50
2022-12-05T12:07:43.560Z,11.90
2022-12-05T12:10:22.574Z,11.47
2022-12-05T12:13:05.350Z,11.73
2022-12-05T12:15:54.790Z,12.60
2022-12-05T12:18:46.529Z,11.03
2022-12-05T12:21:18.793Z,10.87
2022-12-05T12:24:02.973Z,12.33
2022-12-05T12:26:44.076Z,10.43
2022-12-05T12:29:21.254Z,12.17
2022-12-05T12:31:59.456Z,11.00
2022-12-05T12:34:51.210Z,10.90
2022-12-05T12:37:27.992Z,10.80
2022-12-05T12:40:05.156Z,9.53
2022-12-05T12:42:40.516Z,10.00
2022-12-05T12:45:39.363Z,11.00
2022-12-05T12:48:18.197Z,10.47
2022-12-05T12:50:52.238Z,10.80
2022-12-05T12:53:36.750Z,11.03
2022-12-05T12:56:12.983Z,11.47
2022-12-05T12:58:51.728Z,13.37
2022-12-05T13:01:31.268Z,14.30
2022-12-05T13:04:06.524Z,14.70
2022-12-05T13:06:40.796Z,15.35
2022-12-05T13:09:19.702Z,20.37
2022-12-05T13:11:48.877Z,16.60
2022-12-05T13:14:23.421Z,17.07
2022-12-05T13:16:55.225Z,21.83
2022-12-05T13:19:30.598Z,15.93
2022-12-05T13:21:59.340Z,15.50
2022-12-05T13:24:29.236Z,13.70
2022-12-05T13:27:00.914Z,16.10
2022-12-05T13:29:34.110Z,16.90
2022-12-05T13:32:05.167Z,20.90
2022-12-05T13:34:48.486Z,19.50
2022-12-05T13:37:43.680Z,19.53
2022-12-05T13:40:45.543Z,20.63
2022-12-05T13:43:16.349Z,19.50
2022-12-05T13:45:55.756Z,19.67
2022-12-05T13:48:27.055Z,17.70
2022-12-05T13:50:58.548Z,16.53
2022-12-05T13:53:32.499Z,19.07
2022-12-05T13:56:03.037Z,24.60
2022-12-05T13:58:46.805Z,18.73
2022-12-05T14:01:55.734Z,14.10
2022-12-05T14:04:50.299Z,13.77
2022-12-05T14:07:40.689Z,15.93
2022-12-05T14:10:11.051Z,14.13
2022-12-05T14:12:51.605Z,15.03
2022-12-05T14:15:27.498Z,14.27
2022-12-05T14:18:00.830Z,12.60
2022-12-05T14:20:42.187Z,11.17
2022-12-05T14:23:26.113Z,10.90
2022-12-05T14:26:08.924Z,11.87
2022-12-05T14:28:49.756Z,10.67
2022-12-05T14:31:31.049Z,11.00
2022-12-05T14:34:11.819Z,14.03
2022-12-05T14:36:52.338Z,10.97
2022-12-05T14:39:29.654Z,10.27
2022-12-05T14:41:58.871Z,12.00
2022-12-05T14:44:32.042Z,12.30
2022-12-05T14:47:03.137Z,12.63
2022-12-05T14:49:52.818Z,11.43
2022-12-05T14:52:25.353Z,13.90
2022-12-05T14:54:56.591Z,13.03
2022-12-05T14:57:24.918Z,12.07
2022-12-05T14:59:56.191Z,14.03
2022-12-05T15:02:30.837Z,12.70
2022-12-05T15:05:04.558Z,12.57
2022-12-05T15:07:39.472Z,13.20
2022-12-05T15:10:13.887Z,20.03
2022-12-05T15:12:47.811Z,19.77
2022-12-05T15:15:20.213Z,15.23
2022-12-05T15:17:53.242Z,13.00
2022-12-05T15:20:34.355Z,18.33
2022-12-05T15:23:46.691Z,14.90
2022-12-05T15:26:45.150Z,15.03
2022-12-05T15:29:10.932Z,19.87
2022-12-05T15:31:45.309Z,15.00
2022-12-05T15:34:18.283Z,17.33
2022-12-05T15:36:51.391Z,18.70
2022-12-05T15:39:25.767Z,16.87
2022-12-05T15:41:54.197Z,19.90
2022-12-05T15:44:27.273Z,21.17
2022-12-05T15:46:59.222Z,20.00
2022-12-05T15:49:28.809Z,18.73
2022-12-05T15:52:03.023Z,22.03
2022-12-05T15:54:35.833Z,23.70
2022-12-05T15:57:09.250Z,17.73
2022-12-05T15:59:41.889Z,17.00
2022-12-05T16:02:14.902Z,16.73
2022-12-05T16:04:47.315Z,18.27
2022-12-05T16:07:16.161Z,17.50
2022-12-05T16:09:47.314Z,18.97
2022-12-05T16:12:25.946Z,20.40
2022-12-05T16:15:00.679Z,20.93
2022-12-05T16:17:31.341Z,18.03
2022-12-05T16:20:22.489Z,21.20
2022-12-05T16:22:52.309Z,18.53
2022-12-05T16:25:25.232Z,17.60
2022-12-05T16:28:05.357Z,19.37
2022-12-05T16:30:33.460Z,19.60
2022-12-05T16:33:04.318Z,17.07
2022-12-05T16:35:35.267Z,15.40
2022-12-05T16:38:22.122Z,16.77
2022-12-05T16:40:59.328Z,16.00
2022-12-05T16:43:41.530Z,14.90
2022-12-05T16:46:45.916Z,15.40
2022-12-05T16:49:25.484Z,13.20
2022-12-05T16:52:00.995Z,14.63
2022-12-05T16:54:28.874Z,13.33
2022-12-05T16:56:59.539Z,14.53
2022-12-05T16:59:33.301Z,14.20
2022-12-05T17:02:01.922Z,13.30
2022-12-05T17:04:31.348Z,12.73
2022-12-05T17:06:59.189Z,14.47
2022-12-05T17:09:27.059Z,12.90
2022-12-05T17:12:02.339Z,13.40
2022-12-05T17:14:30.191Z,18.83
2022-12-05T17:16:58.044Z,17.47
2022-12-05T17:19:30.453Z,20.75
2022-12-05T17:21:58.255Z,20.40
2022-12-05T17:24:28.267Z,20.00
2022-12-05T17:26:56.146Z,24.57
2022-12-05T17:29:25.326Z,19.83
2022-12-05T17:31:53.182Z,21.37
2022-12-05T17:34:21.048Z,23.57
2022-12-05T17:36:48.847Z,22.90
2022-12-05T17:39:16.627Z,27.20
2022-12-05T17:41:44.392Z,22.97
2022-12-05T17:44:14.248Z,19.10
2022-12-05T17:46:44.367Z,18.00
2022-12-05T17:49:14.808Z,18.63
2022-12-05T17:52:05.562Z,15.03
2022-12-05T17:54:30.898Z,13.80
2022-12-05T17:56:58.691Z,16.43
2022-12-05T17:59:26.481Z,17.07
2022-12-05T18:01:55.586Z,18.03
2022-12-05T18:04:23.774Z,15.80
2022-12-05T18:06:51.635Z,19.13
2022-12-05T18:09:19.612Z,17.77
2022-12-05T18:11:47.397Z,15.00
2022-12-05T18:14:15.227Z,15.70
2022-12-05T18:16:43.079Z,14.93
2022-12-05T18:19:12.300Z,16.53
2022-12-05T18:21:40.206Z,16.90
2022-12-05T18:24:08.306Z,17.10
2022-12-05T18:26:36.104Z,14.40
2022-12-05T18:29:04.273Z,14.50
2022-12-05T18:31:32.403Z,13.83
2022-12-05T18:34:00.321Z,16.90
2022-12-05T18:36:29.433Z,11.90
2022-12-05T18:38:59.158Z,12.53
2022-12-05T18:41:27.232Z,12.67
2022-12-05T18:43:55.404Z,13.30
2022-12-05T18:46:23.583Z,13.70
2022-12-05T18:48:51.554Z,16.83
2022-12-05T18:51:21.719Z,15.73
2022-12-05T18:53:53.250Z,13.50
2022-12-05T18:56:24.912Z,14.97
2022-12-05T18:58:55.131Z,14.03
2022-12-05T19:01:23.047Z,13.40
2022-12-05T19:03:51.516Z,15.00
2022-12-05T19:06:21.430Z,13.10
2022-12-05T19:08:50.598Z,12.97
2022-12-05T19:11:20.054Z,16.10
2022-12-05T19:13:48.334Z,14.00
2022-12-05T19:16:18.426Z,15.83
2022-12-05T19:18:47.449Z,16.20
2022-12-05T19:21:18.201Z,17.70
2022-12-05T19:23:46.109Z,18.87
2022-12-05T19:26:15.324Z,15.60
2022-12-05T19:28:43.372Z,21.30
2022-12-05T19:31:13.047Z,15.00
2022-12-05T19:33:42.319Z,14.37
2022-12-05T19:36:12.146Z,16.60
2022-12-05T19:38:41.302Z,15.00
2022-12-05T19:41:10.985Z,12.97
2022-12-05T19:43:40.559Z,14.47
2022-12-05T19:46:09.789Z,14.50
2022-12-05T19:48:38.203Z,13.30
2022-12-05T19:51:06.268Z,14.83
2022-12-05T19:53:36.621Z,16.80
2022-12-05T19:56:06.659Z,19.23
2022-12-05T19:58:35.512Z,16.67
2022-12-05T20:01:13.232Z,15.10
2022-12-05T20:03:41.894Z,16.53
2022-12-05T20:06:10.816Z,16.60
2022-12-05T20:08:39.325Z,15.63
2022-12-05T20:11:08.941Z,15.83
2022-12-05T20:13:46.524Z,15.83
2022-12-05T20:16:19.257Z,12.70
2022-12-05T20:18:47.920Z,13.87
2022-12-05T20:21:18.092Z,17.00
2022-12-05T20:23:46.331Z,13.60
2022-12-05T20:26:16.872Z,14.50
2022-12-05T20:28:44.953Z,13.80
2022-12-05T20:31:15.087Z,15.80
2022-12-05T20:33:44.970Z,14.30
2022-12-05T20:36:14.210Z,14.57
2022-12-05T20:38:42.842Z,20.97
2022-12-05T20:41:15.232Z,18.60
2022-12-05T20:43:43.800Z,17.57
2022-12-05T20:46:13.685Z,18.03
2022-12-05T20:48:41.890Z,15.83
2022-12-05T20:51:12.616Z,19.37
2022-12-05T20:53:42.335Z,18.13
2022-12-05T20:56:12.465Z,18.27
2022-12-05T20:58:40.892Z,17.60
2022-12-05T21:01:11.465Z,17.40
2022-12-05T21:03:41.982Z,17.63
2022-12-05T21:06:13.295Z,18.83
2022-12-05T21:08:41.393Z,18.40
2022-12-05T21:11:10.337Z,17.73
2022-12-05T21:13:38.693Z,15.33
2022-12-05T21:16:08.845Z,16.47
2022-12-05T21:18:37.317Z,15.07
2022-12-05T21:21:06.733Z,15.17
2022-12-05T21:23:35.915Z,15.90
2022-12-05T21:26:05.703Z,20.70
2022-12-05T21:28:35.119Z,15.77
2022-12-05T21:31:07.437Z,16.87
2022-12-05T21:33:35.446Z,14.73
2022-12-05T21:36:04.629Z,17.30
2022-12-05T21:38:33.093Z,17.43
2022-12-05T21:41:03.908Z,16.87
2022-12-05T21:43:31.907Z,17.47
2022-12-05T21:45:59.854Z,16.53
2022-12-05T21:48:27.997Z,16.13
2022-12-05T21:50:56.300Z,19.07
2022-12-05T21:53:24.604Z,16.30
2022-12-05T21:56:00.279Z,20.60
2022-12-05T21:58:29.865Z,18.07
2022-12-05T22:00:57.778Z,16.43
2022-12-05T22:03:25.632Z,14.80
2022-12-05T22:06:01.515Z,15.90
2022-12-05T22:08:30.303Z,14.53
2022-12-05T22:11:05.009Z,14.33
2022-12-05T22:13:34.813Z,14.70
2022-12-05T22:16:03.086Z,13.57
2022-12-05T22:18:31.625Z,14.03
2022-12-05T22:21:01.040Z,16.98
2022-12-05T22:23:29.527Z,14.20
2022-12-05T22:26:01.981Z,15.00
2022-12-05T22:28:30.413Z,15.33
2022-12-05T22:31:01.332Z,15.20
2022-12-05T22:33:29.690Z,16.73
2022-12-05T22:35:59.689Z,17.20
2022-12-05T22:38:32.543Z,18.50
2022-12-05T22:41:01.672Z,16.03
2022-12-05T22:43:30.816Z,18.33
2022-12-05T22:46:05.025Z,16.87
2022-12-05T22:48:32.947Z,18.90
2022-12-05T22:51:01.664Z,19.50
2022-12-05T22:53:30.386Z,17.27
2022-12-05T22:56:03.917Z,17.13
2022-12-05T22:58:32.043Z,14.83
2022-12-05T23:01:09.739Z,15.73
2022-12-05T23:03:37.695Z,15.43
2022-12-05T23:06:11.210Z,16.00
2022-12-05T23:08:40.586Z,17.50
2022-12-05T23:11:10.002Z,13.73
2022-12-05T23:13:39.289Z,16.77
2022-12-05T23:16:11.177Z,16.73
2022-12-05T23:18:47.652Z,18.33
2022-12-05T23:21:20.731Z,15.87
2022-12-05T23:23:50.145Z,18.30
2022-12-05T23:26:19.282Z,15.40
2022-12-05T23:28:47.875Z,15.30
2022-12-05T23:31:17.752Z,15.33
2022-12-05T23:33:49.487Z,19.07
2022-12-05T23:36:19.505Z,16.37
2022-12-05T23:38:48.020Z,18.97
2022-12-05T23:41:18.469Z,18.70
2022-12-05T23:43:47.706Z,17.63
2022-12-05T23:46:18.520Z,17.00
2022-12-05T23:48:46.448Z,17.40
2022-12-05T23:51:16.129Z,16.20
2022-12-05T23:53:46.027Z,17.13
2022-12-05T23:56:15.781Z,16.07
2022-12-05T23:58:44.525Z,18.00
